createdAt,value
2022-10-17T00:00:24.786Z,101818.41
2022-10-17T00:02:58.634Z,101822.00
2022-10-17T00:05:27.492Z,101813.25
2022-10-17T00:07:57.167Z,101818.50
2022-10-17T00:10:25.997Z,101812.31
2022-10-17T00:12:55.699Z,101804.38
2022-10-17T00:15:26.632Z,101805.28
2022-10-17T00:17:56.297Z,101805.28
2022-10-17T00:20:26.915Z,101812.31
2022-10-17T00:22:57.559Z,101807.94
2022-10-17T00:25:32.131Z,101804.44
2022-10-17T00:28:08.971Z,101812.31
2022-10-17T00:30:39.073Z,101797.38
2022-10-17T00:33:10.668Z,101802.66
2022-10-17T00:35:44.032Z,101802.63
2022-10-17T00:38:25.110Z,101803.50
2022-10-17T00:41:00.934Z,101800.00
2022-10-17T00:44:06.790Z,101787.72
2022-10-17T00:46:40.782Z,101786.84
2022-10-17T00:49:13.071Z,101790.38
2022-10-17T00:51:46.681Z,101789.56
2022-10-17T00:54:19.566Z,101789.56
2022-10-17T01:02:33.590Z,101786.09
2022-10-17T01:05:10.079Z,101776.44
2022-10-17T01:07:46.516Z,101779.06
2022-10-17T01:16:33.561Z,101773.88
2022-10-17T01:19:41.250Z,101771.22
2022-10-17T01:22:20.970Z,101772.09
2022-10-17T01:25:02.390Z,101772.13
2022-10-17T01:28:23.242Z,101767.75
2022-10-17T01:31:14.140Z,101755.44
2022-10-17T01:34:05.010Z,101754.56
2022-10-17T01:36:42.392Z,101747.53
2022-10-17T01:39:22.148Z,101738.78
2022-10-17T01:42:06.786Z,101735.25
2022-10-17T01:44:43.910Z,101731.72
2022-10-17T01:47:20.553Z,101718.53
2022-10-17T01:49:55.132Z,101720.31
2022-10-17T01:52:29.590Z,101707.09
2022-10-17T01:55:05.942Z,101716.75
2022-10-17T01:57:54.369Z,101710.63
2022-10-17T02:00:38.165Z,101712.38
2022-10-17T02:03:19.349Z,101694.81
2022-10-17T02:08:47.587Z,101699.22
2022-10-17T02:11:23.734Z,101695.69
2022-10-17T02:14:18.358Z,101691.25
2022-10-17T02:17:01.082Z,101691.25
2022-10-17T02:20:22.630Z,101683.31
2022-10-17T02:23:00.332Z,101683.34
2022-10-17T02:26:05.619Z,101670.13
2022-10-17T02:28:51.724Z,101658.72
2022-10-17T02:31:28.416Z,101658.72
2022-10-17T02:34:03.832Z,101648.16
2022-10-17T02:36:52.940Z,101646.44
2022-10-17T02:39:40.485Z,101639.41
2022-10-17T02:42:14.566Z,101636.75
2022-10-17T02:44:48.231Z,101637.63
2022-10-17T02:48:01.686Z,101642.91
2022-10-17T02:50:43.089Z,101646.41
2022-10-17T02:53:42.341Z,101649.03
2022-10-17T02:56:19.634Z,101654.31
2022-10-17T02:59:00.981Z,101645.50
2022-10-17T03:01:33.843Z,101653.41
2022-10-17T03:07:07.543Z,101649.03
2022-10-17T03:09:37.611Z,101653.41
2022-10-17T03:12:06.887Z,101640.25
2022-10-17T03:14:49.242Z,101636.72
2022-10-17T03:17:21.924Z,101627.94
2022-10-17T03:19:50.136Z,101627.06
2022-10-17T03:22:21.622Z,101621.78
2022-10-17T03:24:58.748Z,101613.88
2022-10-17T03:27:35.440Z,101607.72
2022-10-17T03:30:11.069Z,101598.94
2022-10-17T03:32:44.002Z,101612.09
2022-10-17T03:35:19.553Z,101610.38
2022-10-17T03:37:52.693Z,101603.31
2022-10-17T03:40:46.374Z,101603.34
2022-10-17T03:46:02.587Z,101603.34
2022-10-17T03:48:34.121Z,101605.13
2022-10-17T03:51:09.532Z,101598.06
2022-10-17T03:53:52.048Z,101606.00
2022-10-17T03:56:26.017Z,101608.63
2022-10-17T03:58:56.405Z,101605.09
2022-10-17T04:01:31.129Z,101608.63
2022-10-17T04:04:02.365Z,101608.63
2022-10-17T04:06:44.322Z,101619.19
2022-10-17T04:09:15.428Z,101616.53
2022-10-17T04:11:45.162Z,101619.16
2022-10-17T04:14:22.043Z,101612.16
2022-10-17T04:16:58.375Z,101617.44
2022-10-17T04:19:29.258Z,101610.41
2022-10-17T04:21:58.185Z,101599.84
2022-10-17T04:29:59.195Z,101598.97
2022-10-17T04:32:33.903Z,101598.09
2022-10-17T04:35:03.666Z,101598.09
2022-10-17T04:37:34.234Z,101588.44
2022-10-17T04:40:03.910Z,101581.41
2022-10-17T04:42:50.728Z,101584.91
2022-10-17T04:45:21.920Z,101571.75
2022-10-17T04:47:54.212Z,101578.75
2022-10-17T04:50:22.905Z,101580.50
2022-10-17T04:55:52.569Z,101586.69
2022-10-17T04:58:30.978Z,101586.66
2022-10-17T05:01:01.123Z,101594.56
2022-10-17T05:03:31.895Z,101598.06
2022-10-17T05:06:00.101Z,101588.41
2022-10-17T05:08:37.142Z,101581.34
2022-10-17T05:11:09.660Z,101576.94
2022-10-17T05:13:58.336Z,101593.63
2022-10-17T05:16:29.935Z,101583.97
2022-10-17T05:19:01.916Z,101582.19
2022-10-17T05:24:09.096Z,101580.47
2022-10-17T05:26:41.283Z,101596.25
2022-10-17T05:29:14.112Z,101600.69
2022-10-17T05:31:49.058Z,101608.56
2022-10-17T05:34:18.477Z,101603.28
2022-10-17T05:36:48.130Z,101601.53
2022-10-17T05:39:20.676Z,101586.56
2022-10-17T05:41:55.264Z,101566.34
2022-10-17T05:47:34.837Z,101580.41
2022-10-17T05:50:03.373Z,101592.69
2022-10-17T05:52:47.161Z,101594.47
2022-10-17T05:55:16.449Z,101589.19
2022-10-17T05:58:00.800Z,101584.78
2022-10-17T06:00:32.086Z,101598.84
2022-10-17T06:03:02.938Z,101587.41
2022-10-17T06:05:32.678Z,101588.28
2022-10-17T06:08:08.374Z,101590.03
2022-10-17T06:10:40.304Z,101600.56
2022-10-17T06:13:10.047Z,101594.41
2022-10-17T06:16:07.072Z,101586.47
2022-10-17T06:21:28.772Z,101603.16
2022-10-17T06:23:59.809Z,101608.44
2022-10-17T06:26:34.672Z,101610.16
2022-10-17T06:29:04.215Z,101612.75
2022-10-17T06:31:38.290Z,101616.28
2022-10-17T06:34:15.163Z,101602.19
2022-10-17T06:36:51.556Z,101604.78
2022-10-17T06:39:36.642Z,101605.63
2022-10-17T06:42:07.174Z,101617.94
2022-10-17T06:44:37.321Z,101639.94
2022-10-17T06:47:08.331Z,101644.38
2022-10-17T06:49:51.719Z,101653.13
2022-10-17T06:52:35.155Z,101661.03
2022-10-17T06:55:10.722Z,101653.97
2022-10-17T06:57:40.640Z,101649.53
2022-10-17T07:00:12.428Z,101645.09
2022-10-17T07:02:49.444Z,101648.53
2022-10-17T07:08:08.073Z,101620.25
2022-10-17T07:10:38.972Z,101637.88
2022-10-17T07:13:13.365Z,101636.06
2022-10-17T07:15:42.578Z,101645.69
2022-10-17T07:18:33.848Z,101632.38
2022-10-17T07:21:11.916Z,101634.06
2022-10-17T07:23:48.764Z,101627.03
2022-10-17T07:26:19.558Z,101638.31
2022-10-17T07:28:54.408Z,101640.00
2022-10-17T07:31:26.307Z,101641.72
2022-10-17T07:34:01.754Z,101651.28
2022-10-17T07:36:36.463Z,101649.44
2022-10-17T07:39:23.702Z,101659.94
2022-10-17T07:42:00.840Z,101658.03
2022-10-17T07:44:31.668Z,101658.84
2022-10-17T07:47:02.033Z,101658.75
2022-10-17T07:49:33.991Z,101648.13
2022-10-17T07:52:17.168Z,101650.66
2022-10-17T07:54:54.570Z,101663.78
2022-10-17T07:57:23.692Z,101667.16
2022-10-17T08:00:02.177Z,101663.56
2022-10-17T08:02:33.490Z,101681.19
2022-10-17T08:05:10.960Z,101685.53
2022-10-17T08:07:42.656Z,101689.06
2022-10-17T08:10:14.526Z,101687.22
2022-10-17T08:12:44.594Z,101677.47
2022-10-17T08:15:34.685Z,101687.94
2022-10-17T08:18:06.491Z,101681.56
2022-10-17T08:20:56.773Z,101686.69
2022-10-17T08:26:20.265Z,101693.28
2022-10-17T08:28:49.497Z,101691.31
2022-10-17T08:31:35.497Z,101684.13
2022-10-17T08:34:12.694Z,101690.19
2022-10-17T08:36:56.904Z,101682.09
2022-10-17T08:39:25.342Z,101677.59
2022-10-17T08:42:08.026Z,101687.19
2022-10-17T08:44:58.938Z,101694.13
2022-10-17T08:53:26.746Z,101704.75
2022-10-17T08:55:59.686Z,101714.34
2022-10-17T08:58:39.333Z,101720.53
2022-10-17T09:01:27.308Z,101681.56
2022-10-17T09:04:50.100Z,101688.63
2022-10-17T09:07:31.321Z,101696.59
2022-10-17T09:10:11.909Z,101690.16
2022-10-17T09:13:07.598Z,101697.16
2022-10-17T09:15:52.629Z,101710.28
2022-10-17T09:18:31.514Z,101757.16
2022-10-17T09:21:21.773Z,101770.44
2022-10-17T09:24:15.875Z,101784.53
2022-10-17T09:26:47.585Z,101802.44
2022-10-17T09:29:44.057Z,101826.28
2022-10-17T09:32:42.975Z,101829.03
2022-10-17T09:35:18.079Z,101818.59
2022-10-17T09:37:52.276Z,101837.09
2022-10-17T09:43:28.446Z,101861.03
2022-10-17T09:46:26.861Z,101847.81
2022-10-17T09:49:03.429Z,101849.59
2022-10-17T09:51:34.717Z,101853.13
2022-10-17T09:54:13.525Z,101840.09
2022-10-17T09:57:07.174Z,101830.56
2022-10-17T10:05:34.935Z,101840.28
2022-10-17T10:08:07.226Z,101838.53
2022-10-17T10:10:38.900Z,101858.00
2022-10-17T10:13:21.818Z,101867.91
2022-10-17T10:15:54.391Z,101838.13
2022-10-17T10:18:56.861Z,101820.66
2022-10-17T10:21:31.429Z,101807.63
2022-10-17T10:24:25.882Z,101808.66
2022-10-17T10:27:09.436Z,101807.88
2022-10-17T10:29:44.890Z,101816.78
2022-10-17T10:32:24.551Z,101820.34
2022-10-17T10:35:08.528Z,101822.19
2022-10-17T10:37:43.819Z,101819.53
2022-10-17T10:40:19.680Z,101824.84
2022-10-17T10:46:00.426Z,101833.69
2022-10-17T10:48:36.952Z,101838.97
2022-10-17T10:51:15.550Z,101844.28
2022-10-17T10:54:01.456Z,101869.06
2022-10-17T10:56:40.592Z,101877.91
2022-10-17T10:59:19.442Z,101881.47
2022-10-17T11:01:58.442Z,101878.81
2022-10-17T11:04:47.439Z,101871.72
2022-10-17T11:07:22.762Z,101857.53
2022-10-17T11:10:18.865Z,101858.41
2022-10-17T11:12:56.320Z,101853.03
2022-10-17T11:15:35.533Z,101845.94
2022-10-17T11:21:22.044Z,101828.13
2022-10-17T11:24:11.407Z,101815.63
2022-10-17T11:27:07.382Z,101827.91
2022-10-17T11:29:49.908Z,101878.25
2022-10-17T11:32:27.998Z,101896.84
2022-10-17T11:35:09.300Z,101905.72
2022-10-17T11:37:48.366Z,101915.50
2022-10-17T11:40:37.921Z,101922.66
2022-10-17T11:46:14.589Z,101913.88
2022-10-17T11:49:19.792Z,101926.31
2022-10-17T11:52:00.937Z,101924.63
2022-10-17T11:54:54.155Z,101946.75
2022-10-17T11:57:51.975Z,101951.19
2022-10-17T12:00:32.668Z,101954.69
2022-10-17T12:03:57.741Z,101947.63
2022-10-17T12:07:07.609Z,101960.84
2022-10-17T12:09:54.792Z,101965.22
2022-10-17T12:12:34.559Z,101958.97
2022-10-17T12:15:34.601Z,101953.63
2022-10-17T12:18:06.404Z,101954.44
2022-10-17T12:20:37.658Z,101958.75
2022-10-17T12:23:28.110Z,101963.94
2022-10-17T12:26:30.375Z,101979.81
2022-10-17T12:29:00.180Z,101971.78
2022-10-17T12:31:34.103Z,101970.94
2022-10-17T12:34:20.728Z,101973.53
2022-10-17T12:36:58.037Z,101977.88
2022-10-17T12:39:54.519Z,101973.53
2022-10-17T12:43:25.489Z,101962.97
2022-10-17T12:46:12.439Z,101964.72
2022-10-17T12:49:19.475Z,101968.22
2022-10-17T12:55:17.255Z,101985.03
2022-10-17T12:58:27.575Z,101978.06
2022-10-17T13:04:04.681Z,101972.03
2022-10-17T13:06:38.480Z,101992.34
2022-10-17T13:09:30.647Z,101990.59
2022-10-17T13:12:02.989Z,101993.25
2022-10-17T13:14:41.890Z,102004.75
2022-10-17T13:17:30.808Z,101995.09
2022-10-17T13:20:00.961Z,101998.66
2022-10-17T13:22:41.555Z,101999.66
2022-10-17T13:25:19.011Z,102004.28
2022-10-17T13:27:53.768Z,102001.69
2022-10-17T13:30:49.793Z,102008.88
2022-10-17T13:34:00.203Z,102021.34
2022-10-17T13:36:31.096Z,102017.91
2022-10-17T13:39:17.231Z,102023.22
2022-10-17T13:41:54.484Z,102034.69
2022-10-17T13:44:27.908Z,102022.34
2022-10-17T13:46:58.693Z,102037.34
2022-10-17T13:49:41.753Z,102043.59
2022-10-17T13:52:29.766Z,102054.19
2022-10-17T13:55:27.347Z,102057.75
2022-10-17T13:58:02.990Z,102062.19
2022-10-17T14:00:35.157Z,102048.09
2022-10-17T14:03:11.007Z,102060.44
2022-10-17T14:06:21.652Z,102070.13
2022-10-17T14:08:59.888Z,102068.34
2022-10-17T14:11:41.236Z,102057.78
2022-10-17T14:14:20.549Z,102071.91
2022-10-17T14:16:49.575Z,102081.63
2022-10-17T14:19:28.121Z,102085.16
2022-10-17T14:22:19.284Z,102086.94
2022-10-17T14:24:52.142Z,102086.09
2022-10-17T14:28:03.087Z,102098.41
2022-10-17T14:30:56.437Z,102095.75
2022-10-17T14:33:34.560Z,102104.59
2022-10-17T14:36:07.300Z,102108.16
2022-10-17T14:38:40.593Z,102113.47
2022-10-17T14:44:22.265Z,102110.88
2022-10-17T14:46:58.059Z,102111.78
2022-10-17T14:50:01.073Z,102116.22
2022-10-17T14:52:52.179Z,102113.56
2022-10-17T14:55:40.355Z,102121.56
2022-10-17T14:58:31.413Z,102110.97
2022-10-17T15:01:20.105Z,102124.22
2022-10-17T15:03:50.257Z,102125.13
2022-10-17T15:06:50.310Z,102113.66
2022-10-17T15:09:20.035Z,102133.06
2022-10-17T15:11:53.212Z,102118.06
2022-10-17T15:14:22.946Z,102118.09
2022-10-17T15:16:51.244Z,102120.75
2022-10-17T15:19:22.502Z,102118.09
2022-10-17T15:21:52.309Z,102111.94
2022-10-17T15:24:22.052Z,102121.63
2022-10-17T15:27:00.387Z,102127.81
2022-10-17T15:29:34.951Z,102132.19
2022-10-17T15:32:04.343Z,102127.75
2022-10-17T15:34:38.800Z,102129.47
2022-10-17T15:37:21.358Z,102138.28
2022-10-17T15:39:59.269Z,102130.38
2022-10-17T15:42:32.507Z,102123.38
2022-10-17T15:45:16.786Z,102141.00
2022-10-17T15:47:53.100Z,102138.41
2022-10-17T15:50:30.354Z,102149.00
2022-10-17T15:53:02.892Z,102142.84
2022-10-17T15:55:34.258Z,102152.53
2022-10-17T16:01:20.497Z,102139.38
2022-10-17T16:04:05.770Z,102154.38
2022-10-17T16:06:39.794Z,102147.28
2022-10-17T16:09:08.042Z,102155.22
2022-10-17T16:11:40.777Z,102152.59
2022-10-17T16:17:12.537Z,102160.53
2022-10-17T16:19:48.476Z,102145.56
2022-10-17T16:22:44.108Z,102175.53
2022-10-17T16:25:36.989Z,102180.84
2022-10-17T16:28:06.281Z,102184.34
2022-10-17T16:30:52.039Z,102186.09
2022-10-17T16:33:21.633Z,102199.34
2022-10-17T16:35:56.062Z,102197.56
2022-10-17T16:38:25.813Z,102205.50
2022-10-17T16:40:54.641Z,102185.22
2022-10-17T16:43:24.612Z,102193.13
2022-10-17T16:46:09.460Z,102207.22
2022-10-17T16:48:46.908Z,102201.06
2022-10-17T16:51:20.495Z,102215.16
2022-10-17T16:53:53.271Z,102218.69
2022-10-17T16:56:33.507Z,102212.50
2022-10-17T16:59:04.193Z,102231.00
2022-10-17T17:01:40.741Z,102222.19
2022-10-17T17:04:15.353Z,102230.09
2022-10-17T17:06:50.114Z,102239.78
2022-10-17T17:09:19.572Z,102230.97
2022-10-17T17:11:48.418Z,102224.81
2022-10-17T17:14:35.383Z,102225.69
2022-10-17T17:17:24.398Z,102228.34
2022-10-17T17:20:21.018Z,102237.13
2022-10-17T17:22:53.561Z,102231.84
2022-10-17T17:25:24.773Z,102231.84
2022-10-17T17:28:00.416Z,102222.97
2022-10-17T17:30:30.758Z,102232.72
2022-10-17T17:33:03.079Z,102234.44
2022-10-17T17:35:54.583Z,102239.72
2022-10-17T17:38:22.940Z,102240.59
2022-10-17T17:40:54.379Z,102233.56
2022-10-17T17:43:38.417Z,102258.25
2022-10-17T17:46:09.544Z,102252.97
2022-10-17T17:48:56.292Z,102248.50
2022-10-17T17:51:29.643Z,102265.25
2022-10-17T17:53:59.036Z,102271.47
2022-10-17T17:56:35.737Z,102275.84
2022-10-17T17:59:04.176Z,102264.41
2022-10-17T18:01:39.106Z,102269.69
2022-10-17T18:04:11.010Z,102275.88
2022-10-17T18:06:43.754Z,102267.06
2022-10-17T18:09:17.948Z,102273.22
2022-10-17T18:11:48.704Z,102278.50
2022-10-17T18:14:19.961Z,102277.63
2022-10-17T18:16:48.432Z,102291.72
2022-10-17T18:24:57.493Z,102299.66
2022-10-17T18:27:39.164Z,102319.94
2022-10-17T18:30:11.873Z,102311.13
2022-10-17T18:32:40.681Z,102315.56
2022-10-17T18:35:45.229Z,102314.66
2022-10-17T18:38:19.916Z,102315.53
2022-10-17T18:40:51.693Z,102322.59
2022-10-17T18:43:21.410Z,102319.06
2022-10-17T18:46:04.692Z,102324.34
2022-10-17T18:48:36.015Z,102327.88
2022-10-17T18:51:07.179Z,102330.50
2022-10-17T18:53:40.727Z,102345.44
2022-10-17T18:56:24.408Z,102354.25
2022-10-17T18:58:59.755Z,102337.41
2022-10-17T19:01:32.343Z,102356.88
2022-10-17T19:04:02.671Z,102372.75
2022-10-17T19:06:40.831Z,102360.34
2022-10-17T19:09:27.414Z,102369.19
2022-10-17T19:11:56.565Z,102362.97
2022-10-17T19:14:32.481Z,102373.56
2022-10-17T19:17:04.119Z,102366.50
2022-10-17T19:19:34.612Z,102365.59
2022-10-17T19:22:05.916Z,102368.22
2022-10-17T19:24:55.361Z,102360.25
2022-10-17T19:27:23.698Z,102363.81
2022-10-17T19:30:11.092Z,102375.28
2022-10-17T19:32:42.084Z,102387.59
2022-10-17T19:35:13.401Z,102388.41
2022-10-17T19:38:06.461Z,102399.88
2022-10-17T19:40:57.153Z,102395.47
2022-10-17T19:43:31.823Z,102398.97
2022-10-17T19:46:05.002Z,102390.97
2022-10-17T19:48:39.488Z,102393.63
2022-10-17T19:51:10.514Z,102406.00
2022-10-17T19:53:47.888Z,102403.31
2022-10-17T19:56:18.740Z,102414.75
2022-10-17T19:58:49.342Z,102408.56
2022-10-17T20:01:23.553Z,102393.56
2022-10-17T20:03:53.148Z,102409.41
2022-10-17T20:06:28.569Z,102422.63
2022-10-17T20:09:02.003Z,102411.09
2022-10-17T20:11:33.252Z,102418.13
2022-10-17T20:14:02.906Z,102426.03
2022-10-17T20:16:43.129Z,102432.25
2022-10-17T20:19:15.007Z,102431.31
2022-10-17T20:21:45.054Z,102421.66
2022-10-17T20:27:00.488Z,102432.22
2022-10-17T20:29:30.859Z,102445.44
2022-10-17T20:32:16.862Z,102452.53
2022-10-17T20:34:47.063Z,102458.72
2022-10-17T20:37:19.481Z,102458.66
2022-10-17T20:39:59.925Z,102462.22
2022-10-17T20:42:39.101Z,102462.19
2022-10-17T20:45:37.588Z,102458.66
2022-10-17T20:48:30.927Z,102464.91
2022-10-17T20:51:00.400Z,102470.19
2022-10-17T20:53:38.557Z,102470.19
2022-10-17T20:56:20.142Z,102469.31
2022-10-17T20:59:09.112Z,102461.28
2022-10-17T21:01:38.984Z,102479.84
2022-10-17T21:04:40.361Z,102478.06
2022-10-17T21:06:57.881Z,102476.31
2022-10-17T21:09:32.635Z,102487.75
2022-10-17T21:12:05.646Z,102477.97
2022-10-17T21:14:36.404Z,102484.25
2022-10-17T21:17:05.624Z,102487.78
2022-10-17T21:19:40.869Z,102485.13
2022-10-17T21:22:29.580Z,102501.94
2022-10-17T21:25:00.862Z,102508.19
2022-10-17T21:27:36.470Z,102508.19
2022-10-17T21:30:05.367Z,102511.72
2022-10-17T21:32:51.115Z,102508.16
2022-10-17T21:35:21.405Z,102519.69
2022-10-17T21:40:34.446Z,102513.53
2022-10-17T21:43:05.156Z,102517.06
2022-10-17T21:45:37.928Z,102518.78
2022-10-17T21:48:13.986Z,102512.56
2022-10-17T21:50:48.510Z,102503.66
2022-10-17T21:53:20.243Z,102504.53
2022-10-17T21:55:48.591Z,102493.84
2022-10-17T21:58:47.964Z,102504.34
2022-10-17T22:01:21.521Z,102501.66
2022-10-17T22:03:54.457Z,102512.22
2022-10-17T22:06:40.149Z,102510.50
2022-10-17T22:09:13.915Z,102516.72
2022-10-17T22:11:57.333Z,102506.19
2022-10-17T22:14:28.519Z,102513.28
2022-10-17T22:16:57.118Z,102511.53
2022-10-17T22:19:28.962Z,102515.97
2022-10-17T22:22:07.626Z,102518.59
2022-10-17T22:24:39.049Z,102523.00
2022-10-17T22:27:13.591Z,102538.03
2022-10-17T22:29:59.982Z,102537.09
2022-10-17T22:32:29.505Z,102534.50
2022-10-17T22:35:03.493Z,102525.66
2022-10-17T22:37:40.560Z,102531.84
2022-10-17T22:40:09.710Z,102536.22
2022-10-17T22:42:40.685Z,102525.59
2022-10-17T22:45:11.771Z,102513.28
2022-10-17T22:47:45.903Z,102521.16
2022-10-17T22:50:19.916Z,102521.13
2022-10-17T22:52:54.051Z,102522.84
2022-10-17T22:55:28.109Z,102521.09
2022-10-17T22:58:02.700Z,102522.84
2022-10-17T23:00:46.279Z,102526.38
2022-10-17T23:03:22.462Z,102529.00
2022-10-17T23:05:51.970Z,102526.34
2022-10-17T23:08:36.597Z,102517.56
2022-10-17T23:11:07.989Z,102521.91
2022-10-17T23:13:37.278Z,102526.25
2022-10-17T23:16:12.762Z,102531.41
2022-10-17T23:18:41.382Z,102531.38
2022-10-17T23:21:14.881Z,102529.66
2022-10-17T23:23:43.964Z,102526.97
2022-10-17T23:26:16.606Z,102524.31
2022-10-17T23:28:57.439Z,102526.00
2022-10-17T23:31:34.271Z,102523.31
2022-10-17T23:34:05.297Z,102499.47
2022-10-17T23:36:35.529Z,102520.66
2022-10-17T23:39:07.389Z,102510.09
2022-10-17T23:41:35.705Z,102518.84
2022-10-17T23:44:04.612Z,102512.69
2022-10-17T23:46:37.321Z,102517.91
2022-10-17T23:49:12.174Z,102516.16
2022-10-17T23:51:41.541Z,102529.41
2022-10-17T23:54:11.059Z,102533.81
2022-10-17T23:56:39.869Z,102525.00
2022-10-17T23:59:11.434Z,102527.59
